Time;durP1;ratioP1;P1;durP2;ratioP2;P2;SDS_P1;SDS_P2;PMS_P1;PMS_P2;Temp;Humidity;BMP_temperature;BMP_pressure;BME280_temperature;BME280_humidity;BME280_pressure;Samples;Min_cycle;Max_cycle;Signal;HPM_P1;HPM_P2
2023/03/10 00:02:02;;;;;;;69.53;44.55;;;333.10;2329.60;;;;;;5053283;28;20029;-81
2023/03/10 00:04:28;;;;;;;61.53;44.20;;;333.10;2329.60;;;;;;5053080;28;20029;-80
2023/03/10 00:06:53;;;;;;;93.93;60.60;;;333.00;2329.60;;;;;;5053293;28;20482;-80
2023/03/10 00:09:19;;;;;;;126.60;77.95;;;332.90;2329.60;;;;;;5053303;28;20063;-79
2023/03/10 00:11:45;;;;;;;118.38;73.78;;;333.00;2329.60;;;;;;5053307;28;20029;-80
2023/03/10 00:14:11;;;;;;;116.03;70.93;;;332.90;2329.60;;;;;;5053317;28;20101;-76
2023/03/10 00:16:36;;;;;;;93.47;59.78;;;333.00;2329.60;;;;;;5053284;28;20032;-79
2023/03/10 00:19:02;;;;;;;77.07;46.45;;;332.90;2329.60;;;;;;5053060;28;20027;-79
2023/03/10 00:21:30;;;;;;;65.63;40.28;;;308.10;2304.00;;;;;;5053110;28;20113;-79
2023/03/10 00:23:56;;;;;;;74.55;46.75;;;332.80;2329.60;;;;;;5053248;28;20554;-79
2023/03/10 00:26:24;;;;;;;73.13;43.53;;;308.00;2304.00;;;;;;5054129;28;20108;-79
2023/03/10 00:28:50;;;;;;;64.88;39.95;;;308.10;2304.00;;;;;;5052618;28;20546;-79
2023/03/10 00:31:19;;;;;;;62.17;40.35;;;308.10;2304.00;;;;;;5052702;28;20091;-77
2023/03/10 00:33:45;;;;;;;64.32;42.08;;;308.10;2304.00;;;;;;5053152;28;20025;-78
2023/03/10 00:36:10;;;;;;;67.85;44.25;;;308.10;2304.00;;;;;;5052801;28;20033;-79
2023/03/10 00:38:37;;;;;;;60.90;39.10;;;308.10;2304.00;;;;;;5052766;28;20035;-78
2023/03/10 00:41:06;;;;;;;96.10;46.70;;;307.90;2304.00;;;;;;5052845;28;20029;-76
2023/03/10 00:43:32;;;;;;;74.30;40.75;;;307.90;2304.00;;;;;;5053957;28;20470;-79
2023/03/10 00:45:58;;;;;;;77.75;38.72;;;307.90;2304.00;;;;;;5053757;28;20112;-78
2023/03/10 00:48:24;;;;;;;42.55;24.13;;;307.80;2304.00;;;;;;5052686;28;20060;-77
2023/03/10 00:50:50;;;;;;;71.60;32.33;;;307.90;2304.00;;;;;;5053643;28;20429;-78
2023/03/10 00:53:16;;;;;;;49.85;24.85;;;307.90;2304.00;;;;;;5053361;28;20025;-77
2023/03/10 00:55:41;;;;;;;30.58;15.70;;;307.90;2304.00;;;;;;5052483;28;20048;-78
2023/03/10 00:58:07;;;;;;;23.08;14.23;;;307.90;2304.00;;;;;;5052566;28;20478;-80
2023/03/10 01:00:33;;;;;;;20.38;13.30;;;307.90;2304.00;;;;;;5053160;28;20356;-77
2023/03/10 01:02:59;;;;;;;20.02;12.20;;;307.80;2304.00;;;;;;5053590;28;20021;-81
2023/03/10 01:05:27;;;;;;;20.30;14.40;;;307.80;2304.00;;;;;;5052416;28;20364;-78
2023/03/10 01:07:53;;;;;;;22.88;13.07;;;307.80;2304.00;;;;;;5053000;28;20020;-78
2023/03/10 01:10:19;;;;;;;19.48;11.73;;;307.80;2304.00;;;;;;5052685;28;20075;-80
2023/03/10 01:12:45;;;;;;;19.17;11.98;;;307.70;2304.00;;;;;;5052591;28;20021;-78
2023/03/10 01:15:12;;;;;;;32.75;21.42;;;307.80;2304.00;;;;;;5052542;28;20029;-78
2023/03/10 01:17:37;;;;;;;34.03;22.52;;;307.50;2304.00;;;;;;5052072;28;20371;-79
2023/03/10 01:20:08;;;;;;;43.67;27.35;;;307.60;2304.00;;;;;;5053261;28;20082;-79
2023/03/10 01:22:34;;;;;;;64.25;36.10;;;307.70;2304.00;;;;;;5052321;28;20071;-78
2023/03/10 01:25:00;;;;;;;62.63;39.25;;;307.60;2304.00;;;;;;5052120;28;20037;-77
2023/03/10 01:27:26;;;;;;;65.65;38.25;;;307.50;2304.00;;;;;;5052044;28;20056;-78
2023/03/10 01:29:51;;;;;;;56.95;37.95;;;307.50;2304.00;;;;;;5053205;28;20436;-78
2023/03/10 01:32:17;;;;;;;53.40;34.60;;;307.40;2304.00;;;;;;5052125;28;20083;-76
2023/03/10 01:34:43;;;;;;;51.20;35.25;;;307.30;2304.00;;;;;;5052078;28;20029;-78
2023/03/10 01:37:09;;;;;;;41.92;29.13;;;307.30;2304.00;;;;;;5052410;28;20036;-79
2023/03/10 01:39:34;;;;;;;38.10;24.65;;;307.30;2304.00;;;;;;5052097;28;20378;-78
2023/03/10 01:42:00;;;;;;;33.88;22.98;;;282.40;2278.40;;;;;;5051976;28;20095;-77
2023/03/10 01:44:26;;;;;;;47.25;29.88;;;307.20;2304.00;;;;;;5053517;28;20062;-78
2023/03/10 01:46:53;;;;;;;56.85;35.25;;;307.30;2304.00;;;;;;5051950;28;20520;-78
2023/03/10 01:49:28;;;;;;;58.70;38.22;;;307.30;2304.00;;;;;;5051917;28;20036;-77
2023/03/10 01:52:08;;;;;;;76.20;43.05;;;307.40;2304.00;;;;;;5052089;28;20021;-79
2023/03/10 01:54:48;;;;;;;76.43;40.60;;;307.40;2304.00;;;;;;5052167;28;20379;-78
2023/03/10 01:57:17;;;;;;;42.53;28.10;;;307.20;2304.00;;;;;;5051827;28;20021;-79
2023/03/10 01:59:44;;;;;;;125.93;60.63;;;307.20;2304.00;;;;;;5051875;28;20040;-78
2023/03/10 02:02:10;;;;;;;80.65;44.60;;;307.20;2304.00;;;;;;5047871;28;20025;-78
2023/03/10 02:04:42;;;;;;;56.53;33.30;;;307.20;2304.00;;;;;;5031804;28;20041;-78
2023/03/10 02:07:09;;;;;;;37.28;24.02;;;307.30;2304.00;;;;;;5033277;28;20125;-78
2023/03/10 02:09:39;;;;;;;36.75;21.90;;;307.20;2304.00;;;;;;5032491;28;20491;-77
2023/03/10 02:12:07;;;;;;;60.95;35.80;;;307.20;2304.00;;;;;;5032896;28;20030;-77
2023/03/10 02:14:34;;;;;;;38.03;24.30;;;282.50;2278.40;;;;;;5046504;28;20061;-77
2023/03/10 02:17:01;;;;;;;95.50;47.03;;;282.50;2278.40;;;;;;5052450;28;20068;-78
2023/03/10 02:19:42;;;;;;;95.13;50.20;;;282.50;2278.40;;;;;;5050998;28;20391;-77
2023/03/10 02:22:11;;;;;;;91.65;49.17;;;282.40;2278.40;;;;;;5054281;28;20044;-76
2023/03/10 02:24:49;;;;;;;88.45;50.58;;;282.50;2278.40;;;;;;5056329;28;20090;-76
2023/03/10 02:27:15;;;;;;;67.10;40.45;;;282.50;2278.40;;;;;;5054479;28;20035;-77
2023/03/10 02:30:08;;;;;;;63.85;36.75;;;282.30;2278.40;;;;;;5054409;28;20116;-78
2023/03/10 02:32:38;;;;;;;57.65;31.60;;;282.40;2278.40;;;;;;5054262;28;20084;-77
2023/03/10 02:35:04;;;;;;;63.70;32.78;;;282.50;2278.40;;;;;;5055134;28;20083;-77
2023/03/10 02:37:33;;;;;;;57.03;30.17;;;282.50;2278.40;;;;;;5055112;28;20025;-79
2023/03/10 02:40:00;;;;;;;63.95;31.67;;;282.40;2278.40;;;;;;5056423;28;20025;-78
2023/03/10 02:42:35;;;;;;;62.15;35.45;;;282.50;2278.40;;;;;;5055950;28;20104;-79
2023/03/10 02:45:02;;;;;;;72.18;40.95;;;282.50;2278.40;;;;;;5054929;28;20455;-80
2023/03/10 02:47:28;;;;;;;71.93;42.70;;;282.40;2278.40;;;;;;5055096;28;20057;-78
2023/03/10 02:49:54;;;;;;;58.40;36.22;;;282.30;2278.40;;;;;;5054068;28;20044;-77
2023/03/10 02:52:33;;;;;;;70.40;39.17;;;282.20;2278.40;;;;;;5054798;28;20530;-79
2023/03/10 02:54:59;;;;;;;87.53;41.95;;;282.40;2278.40;;;;;;5054192;28;20116;-76
2023/03/10 02:57:25;;;;;;;101.65;50.03;;;282.40;2278.40;;;;;;5054890;28;20113;-76
2023/03/10 02:59:50;;;;;;;85.75;46.10;;;282.40;2278.40;;;;;;5052891;28;20035;-78
2023/03/10 03:02:16;;;;;;;82.70;44.58;;;282.30;2278.40;;;;;;5055668;28;20136;-76
2023/03/10 03:04:42;;;;;;;82.03;44.95;;;282.40;2278.40;;;;;;5053957;28;20044;-77
2023/03/10 03:07:07;;;;;;;95.38;50.00;;;282.30;2278.40;;;;;;5054424;28;20347;-79
2023/03/10 03:09:34;;;;;;;104.30;55.80;;;282.30;2278.40;;;;;;5055364;28;20084;-77
2023/03/10 03:12:00;;;;;;;76.97;44.60;;;282.30;2278.40;;;;;;5054590;28;20465;-76
2023/03/10 03:14:26;;;;;;;57.70;34.95;;;282.20;2278.40;;;;;;5054373;28;20036;-79
2023/03/10 03:16:52;;;;;;;49.88;31.48;;;282.20;2278.40;;;;;;5054516;28;20029;-80
2023/03/10 03:19:17;;;;;;;160.52;104.93;;;282.20;2278.40;;;;;;5054379;28;20112;-79
2023/03/10 03:21:48;;;;;;;66.80;45.65;;;282.00;2278.40;;;;;;5054208;28;20033;-77
2023/03/10 03:24:20;;;;;;;54.08;36.53;;;282.00;2278.40;;;;;;5054365;28;20512;-80
2023/03/10 03:26:46;;;;;;;58.15;36.13;;;282.00;2278.40;;;;;;5054101;28;20122;-79
2023/03/10 03:29:12;;;;;;;59.88;35.83;;;282.20;2278.40;;;;;;5054289;28;20512;-78
2023/03/10 03:31:38;;;;;;;56.35;35.08;;;282.30;2278.40;;;;;;5054113;28;20032;-80
2023/03/10 03:34:04;;;;;;;47.03;31.75;;;282.20;2278.40;;;;;;5053163;28;20021;-77
2023/03/10 03:36:30;;;;;;;50.40;32.70;;;282.20;2278.40;;;;;;5054143;28;20035;-79
2023/03/10 03:38:56;;;;;;;51.53;32.33;;;282.20;2278.40;;;;;;5053694;28;20029;-78
2023/03/10 03:41:21;;;;;;;50.30;32.38;;;282.20;2278.40;;;;;;5053704;28;20026;-79
2023/03/10 03:43:47;;;;;;;59.38;36.47;;;282.20;2278.40;;;;;;5053845;28;20116;-77
2023/03/10 03:46:13;;;;;;;44.50;30.58;;;282.00;2278.40;;;;;;5053903;28;20140;-79
2023/03/10 03:48:39;;;;;;;47.35;32.58;;;282.00;2278.40;;;;;;5053707;28;20029;-79
2023/03/10 03:51:05;;;;;;;49.58;33.53;;;281.90;2278.40;;;;;;5053662;28;20025;-78
2023/03/10 03:53:32;;;;;;;42.83;31.15;;;281.80;2278.40;;;;;;5054049;28;20116;-77
2023/03/10 03:55:58;;;;;;;45.78;31.95;;;281.70;2278.40;;;;;;5053605;28;20431;-79
2023/03/10 03:58:24;;;;;;;51.17;33.00;;;281.80;2278.40;;;;;;5054787;28;20064;-79
2023/03/10 04:00:50;;;;;;;57.75;35.30;;;282.00;2278.40;;;;;;5053499;28;20032;-79
2023/03/10 04:03:15;;;;;;;49.85;32.03;;;282.00;2278.40;;;;;;5053401;28;20412;-77
2023/03/10 04:05:41;;;;;;;58.63;40.83;;;282.00;2278.40;;;;;;5053367;28;20033;-80
2023/03/10 04:08:07;;;;;;;57.83;38.05;;;281.80;2278.40;;;;;;5054397;28;20412;-77
2023/03/10 04:10:33;;;;;;;57.10;37.90;;;282.00;2278.40;;;;;;5053564;28;20043;-77
2023/03/10 04:12:59;;;;;;;59.92;40.70;;;282.00;2278.40;;;;;;5053307;28;20462;-77
2023/03/10 04:15:25;;;;;;;56.63;40.58;;;282.10;2278.40;;;;;;5053272;28;20029;-79
2023/03/10 04:17:50;;;;;;;56.22;39.30;;;282.10;2278.40;;;;;;5053429;28;20021;-78
2023/03/10 04:20:17;;;;;;;57.15;36.83;;;282.20;2278.40;;;;;;5053140;28;20386;-80
2023/03/10 04:22:43;;;;;;;67.68;43.83;;;282.00;2278.40;;;;;;5053048;28;20378;-77
2023/03/10 04:25:09;;;;;;;70.57;48.10;;;281.90;2278.40;;;;;;5059483;28;20036;-79
2023/03/10 04:27:35;;;;;;;79.07;50.30;;;281.70;2278.40;;;;;;5078522;28;20016;-77
2023/03/10 04:30:01;;;;;;;201.23;150.63;;;281.80;2278.40;;;;;;5078460;28;20013;-79
2023/03/10 04:32:27;;;;;;;84.95;56.65;;;282.00;2278.40;;;;;;5066682;28;20095;-79
2023/03/10 04:34:53;;;;;;;60.72;41.67;;;281.80;2278.40;;;;;;5056389;28;20033;-79
2023/03/10 04:37:20;;;;;;;68.78;44.70;;;281.80;2278.40;;;;;;5056135;28;20444;-78
2023/03/10 04:39:46;;;;;;;87.57;56.85;;;281.90;2278.40;;;;;;5056627;28;20371;-77
2023/03/10 04:42:12;;;;;;;81.75;52.33;;;281.90;2278.40;;;;;;5055642;28;20021;-80
2023/03/10 04:44:37;;;;;;;83.60;54.35;;;281.90;2278.40;;;;;;5055073;28;20094;-78
2023/03/10 04:47:03;;;;;;;55.70;37.00;;;281.90;2278.40;;;;;;5055446;28;20032;-77
2023/03/10 04:49:29;;;;;;;51.20;35.78;;;282.00;2278.40;;;;;;5054579;28;20409;-78
2023/03/10 04:51:55;;;;;;;53.72;37.97;;;282.10;2278.40;;;;;;5053196;28;20044;-78
2023/03/10 04:54:20;;;;;;;53.03;36.85;;;281.80;2278.40;;;;;;5052076;28;20360;-79
2023/03/10 04:56:47;;;;;;;49.92;34.38;;;282.00;2278.40;;;;;;5053686;28;20106;-78
2023/03/10 04:59:13;;;;;;;55.05;37.67;;;281.80;2278.40;;;;;;5052590;28;20161;-79
2023/03/10 05:01:38;;;;;;;60.28;39.58;;;281.70;2278.40;;;;;;5052474;28;20156;-78
2023/03/10 05:04:05;;;;;;;68.20;44.30;;;281.70;2278.40;;;;;;5052457;28;20112;-78
2023/03/10 05:06:30;;;;;;;78.45;47.58;;;281.60;2278.40;;;;;;5052574;28;20033;-79
2023/03/10 05:08:57;;;;;;;90.40;60.15;;;281.80;2278.40;;;;;;5052027;28;20170;-80
2023/03/10 05:11:22;;;;;;;83.93;57.20;;;281.70;2278.40;;;;;;5053545;28;20040;-78
2023/03/10 05:13:49;;;;;;;79.50;51.55;;;281.60;2278.40;;;;;;5053620;28;20025;-81
2023/03/10 05:16:19;;;;;;;84.90;53.65;;;282.00;2278.40;;;;;;5052326;28;20119;-81
2023/03/10 05:18:46;;;;;;;72.75;43.08;;;281.80;2278.40;;;;;;5052148;28;20033;-80
2023/03/10 05:21:12;;;;;;;57.42;32.25;;;281.90;2278.40;;;;;;5053643;28;20028;-77
2023/03/10 05:23:38;;;;;;;40.20;24.10;;;282.00;2278.40;;;;;;5052126;28;20032;-79
2023/03/10 05:26:06;;;;;;;62.28;38.72;;;282.10;2278.40;;;;;;5051995;28;20037;-79
2023/03/10 05:28:32;;;;;;;258.75;151.02;;;281.90;2278.40;;;;;;5052212;28;20025;-78
2023/03/10 05:30:58;;;;;;;133.82;84.40;;;281.70;2278.40;;;;;;5052108;28;20025;-80
2023/03/10 05:33:24;;;;;;;132.60;77.10;;;281.70;2278.40;;;;;;5052060;28;20035;-78
2023/03/10 05:35:49;;;;;;;126.97;76.05;;;281.80;2278.40;;;;;;5053157;28;20107;-78
2023/03/10 05:38:15;;;;;;;126.35;75.20;;;281.70;2278.40;;;;;;5052083;28;20058;-78
2023/03/10 05:40:43;;;;;;;104.85;63.40;;;281.80;2278.40;;;;;;5052890;28;20025;-80
2023/03/10 05:43:09;;;;;;;98.30;62.67;;;282.00;2278.40;;;;;;5051908;28;20025;-78
2023/03/10 05:45:35;;;;;;;93.32;60.63;;;281.90;2278.40;;;;;;5052040;28;20074;-81
2023/03/10 05:48:01;;;;;;;93.80;63.75;;;281.70;2278.40;;;;;;5051773;28;20057;-79
2023/03/10 05:50:27;;;;;;;86.07;60.30;;;281.70;2278.40;;;;;;5051999;28;20033;-78
2023/03/10 05:52:52;;;;;;;90.00;60.97;;;281.60;2278.40;;;;;;5053780;28;20383;-81
2023/03/10 05:55:19;;;;;;;84.25;55.55;;;281.90;2278.40;;;;;;5052685;28;20044;-77
2023/03/10 05:57:46;;;;;;;99.82;72.63;;;281.90;2278.40;;;;;;5054753;28;20021;-80
2023/03/10 06:00:13;;;;;;;85.25;61.13;;;281.80;2278.40;;;;;;5054802;28;20033;-77
2023/03/10 06:02:40;;;;;;;89.65;65.07;;;281.90;2278.40;;;;;;5055072;28;20478;-79
2023/03/10 06:05:12;;;;;;;137.85;96.20;;;282.00;2278.40;;;;;;5055484;28;20063;-79
2023/03/10 06:07:38;;;;;;;126.43;90.47;;;282.00;2278.40;;;;;;5055696;28;20087;-79
2023/03/10 06:10:04;;;;;;;131.18;88.25;;;282.00;2278.40;;;;;;5055504;28;20053;-78
2023/03/10 06:12:32;;;;;;;121.18;81.70;;;282.10;2278.40;;;;;;5055524;28;20084;-78
2023/03/10 06:14:57;;;;;;;130.38;87.05;;;282.20;2278.40;;;;;;5056749;28;20059;-79
2023/03/10 06:17:23;;;;;;;159.40;110.15;;;282.20;2278.40;;;;;;5055548;28;20556;-80
2023/03/10 06:19:51;;;;;;;181.70;118.35;;;282.20;2278.40;;;;;;5055582;28;20029;-78
2023/03/10 06:22:17;;;;;;;173.93;116.38;;;282.30;2278.40;;;;;;5056562;28;20087;-79
2023/03/10 06:24:44;;;;;;;170.25;112.65;;;282.40;2278.40;;;;;;5055493;28;20466;-80
2023/03/10 06:27:10;;;;;;;133.32;83.97;;;282.50;2278.40;;;;;;5054133;28;20091;-81
2023/03/10 06:29:36;;;;;;;124.82;81.35;;;307.20;2304.00;;;;;;5055213;28;20029;-80
2023/03/10 06:32:01;;;;;;;118.13;79.70;;;307.40;2304.00;;;;;;5054475;28;20032;-78
2023/03/10 06:34:27;;;;;;;98.05;66.53;;;307.50;2304.00;;;;;;5055141;28;20028;-78
2023/03/10 06:36:54;;;;;;;94.95;68.10;;;307.40;2304.00;;;;;;5055069;28;20025;-78
2023/03/10 06:39:20;;;;;;;102.75;65.78;;;307.30;2304.00;;;;;;5055291;28;20025;-80
2023/03/10 06:41:46;;;;;;;97.43;66.28;;;307.40;2304.00;;;;;;5056501;28;20458;-78
2023/03/10 06:44:17;;;;;;;106.20;69.95;;;307.30;2304.00;;;;;;5055064;28;20036;-79
2023/03/10 06:46:44;;;;;;;110.07;73.63;;;307.30;2304.00;;;;;;5055893;28;20382;-79
2023/03/10 06:49:10;;;;;;;125.35;80.72;;;307.30;2304.00;;;;;;5055818;28;20036;-78
2023/03/10 06:51:35;;;;;;;183.27;97.43;;;307.40;2304.00;;;;;;5054700;28;20029;-80
2023/03/10 06:54:01;;;;;;;187.80;95.88;;;307.50;2304.00;;;;;;5054808;28;20047;-78
2023/03/10 06:56:27;;;;;;;118.40;65.65;;;307.70;2304.00;;;;;;5055941;28;20382;-77
2023/03/10 06:58:52;;;;;;;84.15;52.60;;;307.80;2304.00;;;;;;5054785;28;20028;-79
2023/03/10 07:01:30;;;;;;;64.15;40.42;;;307.90;2304.00;;;;;;5055933;28;20021;-77
2023/03/10 07:03:57;;;;;;;48.45;30.20;;;308.00;2304.00;;;;;;5056184;28;20067;-78
2023/03/10 07:06:23;;;;;;;49.40;30.77;;;308.10;2304.00;;;;;;5055904;28;20033;-78
2023/03/10 07:08:50;;;;;;;43.83;28.98;;;308.10;2304.00;;;;;;5053268;28;20096;-79
2023/03/10 07:11:16;;;;;;;59.38;37.05;;;332.80;2329.60;;;;;;5054424;28;20029;-78
2023/03/10 07:13:42;;;;;;;39.38;27.42;;;332.90;2329.60;;;;;;5054479;28;20359;-80
2023/03/10 07:16:08;;;;;;;43.45;28.83;;;332.90;2329.60;;;;;;5054381;28;20025;-78
2023/03/10 07:18:34;;;;;;;44.42;30.35;;;333.00;2329.60;;;;;;5054534;28;20114;-77
2023/03/10 07:21:00;;;;;;;43.90;29.08;;;333.10;2329.60;;;;;;5054357;28;20029;-79
2023/03/10 07:23:25;;;;;;;40.40;27.63;;;333.20;2329.60;;;;;;5054272;28;20033;-78
2023/03/10 07:25:53;;;;;;;43.42;32.47;;;333.20;2329.60;;;;;;5054109;28;20044;-78
2023/03/10 07:28:19;;;;;;;49.78;31.60;;;333.30;2329.60;;;;;;5054275;28;20021;-79
2023/03/10 07:30:44;;;;;;;44.50;32.75;;;333.30;2329.60;;;;;;5054341;28;20028;-79
2023/03/10 07:33:10;;;;;;;46.47;31.58;;;333.30;2329.60;;;;;;5054023;28;20055;-81
2023/03/10 07:35:36;;;;;;;49.22;32.95;;;333.40;2329.60;;;;;;5054116;28;20035;-79
2023/03/10 07:38:03;;;;;;;41.60;29.08;;;333.40;2329.60;;;;;;5054144;28;20021;-78
2023/03/10 07:40:29;;;;;;;45.72;30.90;;;333.40;2329.60;;;;;;5054157;28;20087;-78
2023/03/10 07:42:55;;;;;;;57.60;35.88;;;333.50;2329.60;;;;;;5054016;28;20025;-82
2023/03/10 07:45:23;;;;;;;51.63;34.35;;;333.50;2329.60;;;;;;5054037;28;20040;-79
2023/03/10 07:47:53;;;;;;;54.67;33.33;;;333.60;2329.60;;;;;;5054106;28;20538;-81
2023/03/10 07:50:19;;;;;;;77.35;42.42;;;333.60;2329.60;;;;;;5046119;28;20470;-81
2023/03/10 07:52:45;;;;;;;92.43;48.33;;;333.60;2329.60;;;;;;5034051;28;20025;-81
2023/03/10 07:55:11;;;;;;;95.05;49.85;;;333.60;2329.60;;;;;;5033400;28;20040;-80
2023/03/10 07:57:37;;;;;;;112.00;57.95;;;333.70;2329.60;;;;;;5033323;28;20029;-82
2023/03/10 08:00:05;;;;;;;132.68;63.70;;;333.70;2329.60;;;;;;5033805;28;20021;-81
2023/03/10 08:02:30;;;;;;;123.45;71.15;;;333.70;2329.60;;;;;;5049819;28;20022;-82
2023/03/10 08:04:56;;;;;;;115.00;66.40;;;333.70;2329.60;;;;;;5049953;28;20195;-79
2023/03/10 08:07:24;;;;;;;113.97;69.50;;;358.40;2329.60;;;;;;5033437;28;20021;-77
2023/03/10 08:09:51;;;;;;;90.05;59.72;;;358.40;2329.60;;;;;;5050003;28;20049;-77
2023/03/10 08:12:18;;;;;;;128.63;76.65;;;358.40;2329.60;;;;;;5033392;28;20120;-78
2023/03/10 08:14:44;;;;;;;112.10;67.28;;;358.50;2329.60;;;;;;5033252;28;20027;-80
2023/03/10 08:17:09;;;;;;;119.07;72.25;;;358.50;2329.60;;;;;;5034836;28;20029;-79
2023/03/10 08:19:36;;;;;;;98.55;59.38;;;358.60;2329.60;;;;;;5033195;28;20485;-77
2023/03/10 08:22:02;;;;;;;106.72;64.45;;;358.60;2329.60;;;;;;5034579;28;20047;-78
2023/03/10 08:24:28;;;;;;;112.07;71.38;;;358.60;2329.60;;;;;;5034407;28;20037;-78
2023/03/10 08:26:54;;;;;;;123.00;77.40;;;358.70;2329.60;;;;;;5033414;28;20044;-80
2023/03/10 08:29:20;;;;;;;110.28;69.00;;;358.80;2329.60;;;;;;5033266;28;20362;-81
2023/03/10 08:31:46;;;;;;;90.43;60.90;;;358.80;2329.60;;;;;;5033263;28;20036;-78
2023/03/10 08:34:13;;;;;;;68.10;48.10;;;358.80;2329.60;;;;;;5033220;28;20030;-78
2023/03/10 08:36:40;;;;;;;79.47;55.03;;;358.80;2329.60;;;;;;5033092;28;20041;-78
2023/03/10 08:39:06;;;;;;;71.22;47.50;;;358.80;2329.60;;;;;;5034243;28;20025;-79
2023/03/10 08:41:35;;;;;;;55.22;40.97;;;358.70;2329.60;;;;;;5032837;28;20033;-78
2023/03/10 08:44:01;;;;;;;55.75;36.42;;;358.80;2329.60;;;;;;5033095;28;20130;-78
2023/03/10 08:46:29;;;;;;;55.83;36.88;;;358.80;2329.60;;;;;;5032730;28;20474;-79
2023/03/10 08:48:55;;;;;;;61.17;41.83;;;358.80;2329.60;;;;;;5032700;28;20033;-80
2023/03/10 08:51:22;;;;;;;66.45;43.92;;;358.80;2329.60;;;;;;5032899;28;20514;-78
2023/03/10 08:53:48;;;;;;;66.13;46.85;;;358.80;2329.60;;;;;;5032916;28;20036;-82
2023/03/10 08:56:16;;;;;;;49.50;38.78;;;359.30;2329.60;;;;;;5032505;28;20026;-80
2023/03/10 08:58:42;;;;;;;50.17;35.65;;;358.80;2329.60;;;;;;5032552;28;20532;-80
2023/03/10 09:01:08;;;;;;;60.45;45.30;;;358.90;2329.60;;;;;;5033141;28;20029;-83
2023/03/10 09:03:38;;;;;;;75.07;56.72;;;358.90;2329.60;;;;;;5034362;28;20025;-77
2023/03/10 09:06:05;;;;;;;73.63;51.08;;;358.80;2329.60;;;;;;5034309;28;20030;-78
2023/03/10 09:08:32;;;;;;;54.92;40.13;;;358.80;2329.60;;;;;;5032669;28;20049;-78
2023/03/10 09:10:58;;;;;;;52.70;38.45;;;358.80;2329.60;;;;;;5034593;28;20490;-80
2023/03/10 09:13:24;;;;;;;55.80;39.42;;;358.80;2329.60;;;;;;5032877;28;20119;-79
2023/03/10 09:15:51;;;;;;;111.88;63.60;;;358.70;2329.60;;;;;;5049322;28;20034;-80
2023/03/10 09:18:17;;;;;;;90.25;54.60;;;358.60;2329.60;;;;;;5032743;28;20065;-75
2023/03/10 09:20:44;;;;;;;87.50;59.17;;;358.60;2329.60;;;;;;5032251;28;20503;-76
2023/03/10 09:23:12;;;;;;;86.53;64.70;;;358.60;2329.60;;;;;;5032294;28;20032;-75
2023/03/10 09:25:39;;;;;;;95.25;64.07;;;358.50;2329.60;;;;;;5032232;28;20434;-76
2023/03/10 09:28:06;;;;;;;100.95;68.43;;;358.50;2329.60;;;;;;5039188;28;20467;-77
2023/03/10 09:30:36;;;;;;;92.63;64.85;;;358.50;2329.60;;;;;;5052332;28;20420;-77
2023/03/10 09:33:03;;;;;;;80.70;56.22;;;358.40;2329.60;;;;;;5050963;28;20025;-76
2023/03/10 09:35:28;;;;;;;78.40;52.05;;;358.40;2329.60;;;;;;5051960;28;20055;-77
2023/03/10 09:37:54;;;;;;;74.45;52.05;;;358.40;2329.60;;;;;;5051914;28;20039;-79
2023/03/10 09:40:20;;;;;;;84.18;60.05;;;358.40;2329.60;;;;;;5053088;28;20029;-77
2023/03/10 09:42:50;;;;;;;82.32;60.95;;;333.70;2329.60;;;;;;5053493;28;20032;-76
2023/03/10 09:45:22;;;;;;;78.13;59.53;;;333.60;2329.60;;;;;;5051836;28;20036;-75
2023/03/10 09:48:02;;;;;;;89.93;64.80;;;333.60;2329.60;;;;;;5052881;28;20543;-75
2023/03/10 09:50:41;;;;;;;92.15;71.03;;;333.60;2329.60;;;;;;5040175;28;20052;-74
2023/03/10 09:53:39;;;;;;;77.68;60.28;;;333.60;2329.60;;;;;;5042610;28;20033;-75
2023/03/10 09:56:16;;;;;;;77.35;61.22;;;333.50;2329.60;;;;;;5035036;28;20598;-76
2023/03/10 09:58:46;;;;;;;70.82;55.13;;;333.50;2329.60;;;;;;5041259;28;20025;-75
2023/03/10 10:01:22;;;;;;;80.03;62.80;;;333.40;2329.60;;;;;;5041084;28;20536;-76
2023/03/10 10:03:53;;;;;;;88.35;64.05;;;333.50;2329.60;;;;;;5049198;28;20394;-74
2023/03/10 10:06:30;;;;;;;93.45;70.20;;;333.50;2329.60;;;;;;5046631;28;20485;-75
2023/03/10 10:09:07;;;;;;;119.70;84.88;;;333.60;2329.60;;;;;;5040774;28;20099;-77
2023/03/10 10:11:37;;;;;;;124.75;93.28;;;333.40;2329.60;;;;;;5052544;28;20106;-75
2023/03/10 10:14:27;;;;;;;112.78;87.05;;;333.50;2329.60;;;;;;5034605;28;20025;-75
2023/03/10 10:17:04;;;;;;;111.85;85.65;;;333.50;2329.60;;;;;;5051198;28;20070;-75
2023/03/10 10:19:30;;;;;;;134.02;103.45;;;333.50;2329.60;;;;;;5037216;28;20032;-77
2023/03/10 10:22:14;;;;;;;131.57;98.10;;;333.50;2329.60;;;;;;5047839;28;20116;-76
2023/03/10 10:24:41;;;;;;;108.43;86.18;;;333.60;2329.60;;;;;;5039981;28;20048;-75
2023/03/10 10:27:06;;;;;;;115.32;91.28;;;333.50;2329.60;;;;;;5040945;28;20394;-77
2023/03/10 10:29:37;;;;;;;120.22;95.13;;;333.50;2329.60;;;;;;5031481;28;20029;-78
2023/03/10 10:32:09;;;;;;;112.15;90.18;;;333.50;1945.60;;;;;;5047720;28;20033;-76
2023/03/10 10:34:41;;;;;;;128.18;101.90;;;333.60;2329.60;;;;;;5038812;28;20071;-76
2023/03/10 10:37:20;;;;;;;112.07;87.68;;;333.50;2329.60;;;;;;5051161;28;20040;-77
2023/03/10 10:39:48;;;;;;;108.10;86.85;;;333.60;2124.80;;;;;;5036297;28;20033;-74
2023/03/10 10:42:26;;;;;;;130.20;101.95;;;333.60;2329.60;;;;;;5036803;28;20500;-76
2023/03/10 10:44:57;;;;;;;105.72;79.60;;;333.60;2048.00;;;;;;5054740;28;20032;-77
2023/03/10 10:47:32;;;;;;;116.57;90.63;;;333.60;2329.60;;;;;;5041282;28;20083;-77
2023/03/10 10:50:23;;;;;;;99.97;76.28;;;333.60;2329.60;;;;;;5051156;28;20140;-77
2023/03/10 10:52:52;;;;;;;97.18;72.75;;;333.60;2329.60;;;;;;5043137;28;20035;-76
2023/03/10 10:55:35;;;;;;;135.95;94.22;;;333.60;2048.00;;;;;;5041748;28;20052;-78
2023/03/10 10:58:05;;;;;;;133.13;96.90;;;333.50;2329.60;;;;;;5050485;28;20049;-74
2023/03/10 11:00:37;;;;;;;84.38;64.53;;;333.50;2329.60;;;;;;5040626;28;20017;-77
2023/03/10 11:03:27;;;;;;;122.45;88.90;;;333.40;2329.60;;;;;;5044863;28;20034;-76
2023/03/10 11:05:54;;;;;;;161.73;108.07;;;333.40;2329.60;;;;;;5050615;28;20486;-76
2023/03/10 11:08:26;;;;;;;112.30;82.75;;;333.40;2329.60;;;;;;5038262;28;20056;-76
2023/03/10 11:11:20;;;;;;;79.13;60.35;;;333.30;2329.60;;;;;;5054239;28;20028;-76
2023/03/10 11:14:25;;;;;;;97.55;74.90;;;333.20;2329.60;;;;;;5037263;28;20034;-75
2023/03/10 11:17:32;;;;;;;113.10;90.63;;;333.30;2329.60;;;;;;5049436;28;20172;-75
2023/03/10 11:20:16;;;;;;;90.03;74.65;;;333.40;2329.60;;;;;;5052459;28;20083;-76
2023/03/10 11:23:05;;;;;;;94.43;73.85;;;333.30;2329.60;;;;;;5042573;28;20429;-76
2023/03/10 11:25:39;;;;;;;108.35;83.10;;;333.40;2329.60;;;;;;5039653;28;20040;-75
2023/03/10 11:28:29;;;;;;;117.10;92.78;;;333.40;2329.60;;;;;;5050214;28;20459;-74
2023/03/10 11:30:58;;;;;;;87.28;65.55;;;333.50;2329.60;;;;;;5044189;28;20029;-78
2023/03/10 11:33:34;;;;;;;59.97;42.22;;;333.50;2329.60;;;;;;5041360;28;20104;-74
2023/03/10 11:36:21;;;;;;;39.50;28.20;;;333.50;2329.60;;;;;;5036664;28;20036;-76
2023/03/10 11:38:51;;;;;;;49.35;34.00;;;333.60;2329.60;;;;;;5045607;28;20131;-75
2023/03/10 11:41:30;;;;;;;55.60;38.65;;;333.60;2329.60;;;;;;5047499;28;20115;-75
2023/03/10 11:43:58;;;;;;;25.30;18.52;;;333.70;2304.00;;;;;;5038285;28;20049;-76
2023/03/10 11:46:35;;;;;;;23.35;15.55;;;333.70;2329.60;;;;;;5054503;28;20056;-73
2023/03/10 11:49:11;;;;;;;22.90;13.32;;;333.70;2329.60;;;;;;5064365;28;20009;-79
2023/03/10 11:51:57;;;;;;;20.45;14.85;;;358.50;2329.60;;;;;;5063306;28;20055;-79
2023/03/10 11:54:25;;;;;;;29.60;18.10;;;358.50;2329.60;;;;;;5033626;28;20164;-81
2023/03/10 11:56:52;;;;;;;23.83;18.17;;;358.50;2329.60;;;;;;5043963;28;20031;-81
2023/03/10 11:59:21;;;;;;;19.77;14.35;;;358.50;2329.60;;;;;;5054060;28;20137;-77
2023/03/10 12:01:57;;;;;;;25.35;20.45;;;358.50;2329.60;;;;;;5050665;28;20036;-81
2023/03/10 12:05:06;;;;;;;33.58;22.23;;;358.50;2329.60;;;;;;5052763;28;20025;-80